Hartford, Connecticut
Traffic Map
Current Weather Conditions
Hartford, Connecticut
Clear
Clear
24°
Feels Like: 24°
Wind Chill: 24° Ceiling: Unl
Heat Index: 24° Visibility: 9mi
Dew Point: 19° Wind: 6mph
Humidity: 73% Direction: 360° (N)
Pressure: 29.88in Gusts: 0mph
Raw Report DataKHFD 031253Z AUTO 36005KT 9SM CLR 24/19 A2988 RMK AO2 SLP119 T02390189
Traffic Incident Summary
Active as of:
Severity:
Category:
InformationThere was an issue retrieving the traffic information for this location. Please try a different location or try again shortly.
Advertisements
Track Severe Weather on mobile